createdAt,value
2022-10-08T00:01:32.288Z,6.17
2022-10-08T00:04:00.496Z,5.67
2022-10-08T00:06:31.153Z,6.50
2022-10-08T00:09:00.798Z,6.53
2022-10-08T00:11:31.106Z,6.27
2022-10-08T00:14:02.025Z,6.30
2022-10-08T00:16:32.215Z,6.60
2022-10-08T00:19:03.760Z,5.87
2022-10-08T00:21:33.809Z,5.97
2022-10-08T00:24:02.709Z,5.77
2022-10-08T00:26:32.559Z,5.93
2022-10-08T00:29:04.021Z,6.07
2022-10-08T00:31:35.355Z,6.40
2022-10-08T00:34:06.268Z,6.23
2022-10-08T00:36:37.235Z,6.40
2022-10-08T00:39:08.347Z,6.03
2022-10-08T00:41:38.786Z,5.60
2022-10-08T00:44:40.702Z,5.93
2022-10-08T00:47:19.363Z,6.27
2022-10-08T00:49:49.159Z,5.83
2022-10-08T00:52:18.369Z,6.23
2022-10-08T00:54:48.912Z,5.70
2022-10-08T00:57:17.329Z,5.97
2022-10-08T00:59:45.546Z,5.30
2022-10-08T01:02:15.597Z,5.43
2022-10-08T01:04:45.361Z,5.47
2022-10-08T01:07:23.673Z,5.33
2022-10-08T01:09:59.149Z,5.67
2022-10-08T01:12:38.106Z,5.37
2022-10-08T01:15:13.506Z,5.73
2022-10-08T01:17:51.155Z,5.60
2022-10-08T01:20:44.203Z,5.40
2022-10-08T01:23:43.324Z,5.40
2022-10-08T01:26:26.740Z,5.83
2022-10-08T01:29:03.255Z,5.47
2022-10-08T01:31:36.182Z,5.23
2022-10-08T01:34:09.530Z,5.40
2022-10-08T01:36:43.302Z,5.47
2022-10-08T01:39:15.202Z,5.20
2022-10-08T01:41:49.106Z,5.57
2022-10-08T01:44:23.948Z,5.73
2022-10-08T01:46:54.015Z,5.57
2022-10-08T01:49:25.127Z,5.43
2022-10-08T01:51:56.663Z,6.00
2022-10-08T01:54:27.252Z,5.40
2022-10-08T01:56:57.791Z,5.30
2022-10-08T01:59:32.566Z,5.63
2022-10-08T02:02:07.780Z,5.03
2022-10-08T02:04:35.255Z,5.73
2022-10-08T02:07:07.424Z,5.50
2022-10-08T02:09:37.959Z,5.80
2022-10-08T02:12:06.935Z,5.63
2022-10-08T02:14:38.898Z,5.27
2022-10-08T02:17:23.712Z,6.13
2022-10-08T02:19:57.962Z,5.47
2022-10-08T02:22:30.494Z,5.30
2022-10-08T02:25:02.804Z,5.33
2022-10-08T02:27:36.267Z,5.63
2022-10-08T02:30:09.313Z,6.03
2022-10-08T02:32:43.506Z,5.10
2022-10-08T02:35:17.364Z,5.27
2022-10-08T02:37:48.556Z,5.50
2022-10-08T02:40:18.795Z,4.43
2022-10-08T02:42:54.151Z,5.50
2022-10-08T02:45:28.889Z,5.40
2022-10-08T02:48:05.243Z,5.07
2022-10-08T02:50:36.361Z,5.37
2022-10-08T02:53:04.886Z,5.50
2022-10-08T02:55:42.591Z,5.20
2022-10-08T02:58:12.319Z,5.10
2022-10-08T03:00:49.027Z,4.83
2022-10-08T03:03:22.235Z,4.93
2022-10-08T03:05:52.751Z,5.43
2022-10-08T03:08:22.711Z,4.87
2022-10-08T03:10:51.864Z,5.00
2022-10-08T03:13:21.119Z,4.80
2022-10-08T03:15:53.734Z,5.43
2022-10-08T03:18:24.284Z,4.37
2022-10-08T03:20:54.313Z,4.80
2022-10-08T03:23:22.499Z,4.30
2022-10-08T03:25:50.681Z,4.23
2022-10-08T03:28:18.905Z,4.00
2022-10-08T03:30:47.633Z,4.20
2022-10-08T03:33:17.230Z,4.67
2022-10-08T03:35:46.661Z,4.23
2022-10-08T03:38:16.590Z,4.63
2022-10-08T03:40:44.925Z,4.43
2022-10-08T03:43:13.160Z,3.53
2022-10-08T03:45:49.576Z,4.23
2022-10-08T03:48:19.488Z,4.63
2022-10-08T03:50:58.899Z,4.20
2022-10-08T03:53:27.809Z,4.87
2022-10-08T03:55:56.241Z,4.67
2022-10-08T03:58:24.685Z,4.37
2022-10-08T04:00:59.073Z,4.27
2022-10-08T04:03:29.518Z,4.10
2022-10-08T04:05:57.763Z,4.57
2022-10-08T04:08:26.762Z,4.53
2022-10-08T04:10:55.021Z,4.63
2022-10-08T04:13:23.686Z,3.77
2022-10-08T04:15:52.083Z,4.47
2022-10-08T04:18:20.471Z,4.17
2022-10-08T04:20:49.912Z,4.57
2022-10-08T04:23:18.030Z,4.20
2022-10-08T04:25:51.866Z,3.93
2022-10-08T04:28:20.394Z,4.13
2022-10-08T04:30:56.798Z,4.37
2022-10-08T04:33:25.361Z,4.60
2022-10-08T04:35:59.907Z,3.57
2022-10-08T04:38:28.843Z,3.80
2022-10-08T04:41:04.189Z,3.83
2022-10-08T04:43:32.308Z,3.97
2022-10-08T04:46:00.508Z,4.03
2022-10-08T04:48:28.691Z,4.17
2022-10-08T04:50:59.334Z,4.13
2022-10-08T04:53:27.983Z,4.13
2022-10-08T04:55:57.271Z,4.43
2022-10-08T04:58:26.774Z,4.83
2022-10-08T05:00:54.975Z,3.80
2022-10-08T05:03:23.248Z,3.83
2022-10-08T05:05:51.375Z,3.87
2022-10-08T05:08:20.979Z,3.80
2022-10-08T05:10:49.952Z,3.50
2022-10-08T05:13:18.050Z,3.97
2022-10-08T05:15:46.268Z,3.97
2022-10-08T05:18:14.379Z,3.60
2022-10-08T05:20:42.583Z,4.50
2022-10-08T05:23:10.750Z,4.20
2022-10-08T05:25:40.325Z,4.17
2022-10-08T05:28:09.079Z,3.80
2022-10-08T05:30:37.257Z,3.70
2022-10-08T05:33:05.504Z,4.10
2022-10-08T05:35:33.669Z,4.37
2022-10-08T05:38:01.781Z,4.33
2022-10-08T05:40:31.573Z,3.53
2022-10-08T05:43:01.147Z,3.40
2022-10-08T05:45:29.428Z,3.87
2022-10-08T05:47:57.579Z,14.93
2022-10-08T05:50:25.715Z,5.30
2022-10-08T05:52:53.961Z,4.27
2022-10-08T05:55:22.094Z,4.00
2022-10-08T05:57:50.231Z,4.13
2022-10-08T06:00:19.938Z,4.63
2022-10-08T06:02:51.013Z,4.00
2022-10-08T06:05:19.320Z,4.20
2022-10-08T06:07:47.447Z,4.17
2022-10-08T06:10:15.780Z,4.47
2022-10-08T06:12:44.163Z,4.60
2022-10-08T06:15:12.556Z,4.40
2022-10-08T06:17:42.127Z,4.97
2022-10-08T06:20:10.911Z,4.27
2022-10-08T06:22:39.076Z,4.13
2022-10-08T06:25:08.492Z,3.90
2022-10-08T06:27:36.722Z,3.80
2022-10-08T06:30:05.377Z,3.87
2022-10-08T06:32:33.467Z,3.63
2022-10-08T06:35:03.018Z,4.10
2022-10-08T06:37:31.410Z,4.00
2022-10-08T06:39:59.515Z,3.87
2022-10-08T06:42:27.692Z,3.53
2022-10-08T06:44:58.758Z,4.27
2022-10-08T06:47:30.133Z,4.30
2022-10-08T06:49:58.287Z,4.13
2022-10-08T06:52:27.896Z,4.27
2022-10-08T06:54:56.000Z,3.93
2022-10-08T06:57:24.263Z,3.93
2022-10-08T06:59:54.459Z,4.03
2022-10-08T07:02:23.062Z,4.07
2022-10-08T07:04:51.205Z,4.53
2022-10-08T07:07:19.811Z,4.00
2022-10-08T07:09:49.329Z,3.90
2022-10-08T07:12:17.543Z,4.73
2022-10-08T07:14:46.013Z,4.03
2022-10-08T07:17:14.096Z,4.30
2022-10-08T07:19:42.284Z,4.07
2022-10-08T07:22:10.465Z,4.30
2022-10-08T07:24:38.611Z,4.17
2022-10-08T07:27:08.263Z,4.60
2022-10-08T07:29:36.617Z,4.20
2022-10-08T07:32:04.958Z,3.60
2022-10-08T07:34:33.203Z,3.60
2022-10-08T07:37:01.401Z,3.60
2022-10-08T07:39:29.644Z,4.10
2022-10-08T07:41:58.009Z,4.27
2022-10-08T07:44:27.587Z,4.00
2022-10-08T07:46:55.719Z,3.43
2022-10-08T07:49:23.873Z,3.90
2022-10-08T07:51:52.153Z,3.83
2022-10-08T07:54:21.371Z,3.50
2022-10-08T07:56:49.523Z,3.27
2022-10-08T07:59:17.691Z,3.57
2022-10-08T08:01:47.342Z,3.27
2022-10-08T08:04:15.758Z,3.60
2022-10-08T08:06:45.724Z,3.30
2022-10-08T08:09:14.945Z,3.43
2022-10-08T08:11:43.335Z,3.23
2022-10-08T08:14:11.416Z,3.70
2022-10-08T08:16:40.522Z,3.23
2022-10-08T08:19:10.164Z,3.03
2022-10-08T08:21:39.572Z,3.17
2022-10-08T08:24:11.601Z,4.00
2022-10-08T08:26:42.314Z,4.20
2022-10-08T08:29:12.771Z,4.17
2022-10-08T08:31:43.419Z,4.37
2022-10-08T08:34:15.477Z,4.90
2022-10-08T08:36:46.104Z,5.37
2022-10-08T08:39:17.363Z,5.33
2022-10-08T08:42:15.000Z,5.17
2022-10-08T08:44:44.480Z,5.27
2022-10-08T08:47:19.069Z,5.83
2022-10-08T08:49:51.999Z,6.10
2022-10-08T08:52:22.891Z,5.33
2022-10-08T08:54:53.376Z,6.13
2022-10-08T08:57:37.441Z,5.30
2022-10-08T09:00:11.583Z,6.00
2022-10-08T09:02:45.978Z,5.73
2022-10-08T09:05:18.243Z,5.40
2022-10-08T09:07:50.670Z,6.10
2022-10-08T09:10:22.543Z,5.00
2022-10-08T09:12:53.741Z,5.87
2022-10-08T09:15:26.956Z,5.83
2022-10-08T09:17:55.099Z,6.40
2022-10-08T09:20:26.417Z,6.50
2022-10-08T09:22:57.602Z,5.67
2022-10-08T09:25:28.284Z,4.87
2022-10-08T09:27:58.070Z,5.30
2022-10-08T09:30:38.009Z,5.13
2022-10-08T09:33:29.537Z,5.00
2022-10-08T09:35:59.532Z,4.67
2022-10-08T09:38:31.300Z,4.70
2022-10-08T09:41:04.568Z,5.47
2022-10-08T09:43:33.882Z,6.20
2022-10-08T09:46:05.696Z,7.03
2022-10-08T09:48:33.963Z,7.63
2022-10-08T09:51:06.846Z,8.13
2022-10-08T09:53:42.641Z,8.13
2022-10-08T09:56:13.294Z,9.27
2022-10-08T09:58:52.237Z,9.43
2022-10-08T10:01:21.345Z,9.37
2022-10-08T10:03:52.231Z,8.93
2022-10-08T10:06:29.425Z,10.03
2022-10-08T10:09:07.911Z,9.07
2022-10-08T10:11:41.815Z,9.47
2022-10-08T10:14:21.457Z,11.47
2022-10-08T10:16:55.966Z,10.43
2022-10-08T10:19:29.537Z,12.27
2022-10-08T10:22:04.516Z,12.43
2022-10-08T10:24:55.317Z,14.80
2022-10-08T10:27:29.980Z,14.63
2022-10-08T10:30:07.591Z,15.23
2022-10-08T10:32:41.024Z,12.43
2022-10-08T10:35:16.112Z,14.13
2022-10-08T10:37:52.227Z,15.50
2022-10-08T10:40:33.026Z,14.80
2022-10-08T10:43:29.639Z,16.50
2022-10-08T10:46:03.082Z,16.77
2022-10-08T10:48:31.446Z,17.20
2022-10-08T10:51:16.530Z,16.57
2022-10-08T10:53:56.627Z,15.07
2022-10-08T10:56:32.192Z,15.67
2022-10-08T10:59:21.340Z,15.37
2022-10-08T11:01:55.157Z,15.70
2022-10-08T11:04:38.391Z,13.70
2022-10-08T11:07:33.492Z,15.33
2022-10-08T11:10:10.413Z,15.70
2022-10-08T11:12:47.096Z,14.83
2022-10-08T11:15:27.750Z,14.63
2022-10-08T11:18:13.130Z,14.97
2022-10-08T11:20:51.036Z,14.43
2022-10-08T11:23:36.263Z,14.40
2022-10-08T11:26:22.295Z,15.60
2022-10-08T11:29:01.123Z,15.27
2022-10-08T11:31:37.700Z,16.27
2022-10-08T11:34:06.834Z,17.50
2022-10-08T11:36:41.645Z,14.50
2022-10-08T11:39:18.488Z,14.40
2022-10-08T11:41:55.179Z,15.07
2022-10-08T11:44:23.597Z,14.73
2022-10-08T11:46:51.724Z,15.83
2022-10-08T11:49:48.236Z,14.83
2022-10-08T11:52:17.128Z,15.33
2022-10-08T11:54:55.390Z,13.40
2022-10-08T12:00:37.488Z,14.03
2022-10-08T12:03:18.687Z,13.50
2022-10-08T12:05:50.862Z,13.57
2022-10-08T12:08:53.891Z,13.60
2022-10-08T12:11:48.648Z,13.83
2022-10-08T12:14:49.592Z,14.93
2022-10-08T12:17:18.022Z,15.20
2022-10-08T12:20:07.651Z,14.20
2022-10-08T12:23:05.303Z,14.00
2022-10-08T12:25:44.148Z,14.30
2022-10-08T12:28:54.184Z,12.90
2022-10-08T12:31:32.705Z,11.80
2022-10-08T12:34:04.201Z,13.50
2022-10-08T12:36:46.913Z,13.00
2022-10-08T12:39:23.788Z,13.93
2022-10-08T12:42:00.433Z,13.70
2022-10-08T12:44:45.220Z,12.90
2022-10-08T12:47:25.936Z,13.20
2022-10-08T12:50:00.790Z,12.10
2022-10-08T12:52:35.348Z,13.00
2022-10-08T12:55:06.222Z,12.00
2022-10-08T12:57:37.018Z,11.57
2022-10-08T13:00:09.307Z,11.77
2022-10-08T13:02:41.166Z,11.50
2022-10-08T13:05:27.417Z,12.23
2022-10-08T13:07:55.957Z,10.90
2022-10-08T13:10:26.412Z,9.80
2022-10-08T13:13:02.247Z,10.60
2022-10-08T13:15:33.392Z,11.13
2022-10-08T13:18:14.565Z,10.80
2022-10-08T13:20:57.302Z,10.23
2022-10-08T13:23:26.060Z,10.70
2022-10-08T13:25:54.175Z,11.83
2022-10-08T13:28:42.162Z,10.00
2022-10-08T13:31:24.064Z,10.40
2022-10-08T13:33:53.765Z,10.03
2022-10-08T13:36:24.273Z,11.43
2022-10-08T13:38:52.526Z,9.80
2022-10-08T13:41:25.184Z,10.90
2022-10-08T13:43:53.458Z,11.27
2022-10-08T13:46:21.695Z,10.73
2022-10-08T13:48:49.956Z,9.47
2022-10-08T13:51:19.616Z,11.37
2022-10-08T13:53:47.853Z,10.30
2022-10-08T13:56:18.174Z,9.40
2022-10-08T13:58:46.247Z,9.53
2022-10-08T14:01:14.374Z,9.77
2022-10-08T14:03:42.568Z,9.47
2022-10-08T14:06:10.774Z,9.63
2022-10-08T14:08:40.396Z,9.00
2022-10-08T14:11:08.737Z,8.50
2022-10-08T14:13:36.944Z,9.40
2022-10-08T14:16:05.107Z,9.53
2022-10-08T14:18:33.526Z,8.43
2022-10-08T14:21:01.762Z,8.67
2022-10-08T14:23:29.920Z,9.40
2022-10-08T14:25:59.656Z,10.23
2022-10-08T14:28:27.885Z,9.83
2022-10-08T14:30:56.158Z,10.23
2022-10-08T14:33:24.321Z,10.17
2022-10-08T14:35:54.452Z,8.90
2022-10-08T14:38:22.608Z,9.20
2022-10-08T14:40:50.797Z,9.93
2022-10-08T14:43:21.994Z,9.33
2022-10-08T14:45:50.275Z,8.87
2022-10-08T14:48:18.577Z,9.20
2022-10-08T14:50:46.778Z,9.93
2022-10-08T14:53:15.083Z,9.70
2022-10-08T14:56:07.450Z,11.57
2022-10-08T14:58:32.966Z,8.70
2022-10-08T15:01:01.380Z,9.67
2022-10-08T15:03:29.605Z,9.10
2022-10-08T15:06:00.448Z,9.47
2022-10-08T15:08:28.887Z,8.40
2022-10-08T15:10:57.161Z,9.43
2022-10-08T15:13:25.348Z,10.70
2022-10-08T15:15:54.997Z,10.33
2022-10-08T15:18:23.166Z,9.10
2022-10-08T15:20:56.652Z,8.77
2022-10-08T15:23:25.145Z,9.23
2022-10-08T15:25:57.630Z,9.50
2022-10-08T15:28:27.916Z,10.07
2022-10-08T15:31:05.622Z,9.67
2022-10-08T15:33:38.696Z,8.87
2022-10-08T15:36:17.098Z,8.90
2022-10-08T15:38:45.360Z,8.43
2022-10-08T15:41:15.015Z,8.77
2022-10-08T15:43:43.189Z,9.37
2022-10-08T15:46:15.548Z,9.07
2022-10-08T15:48:51.014Z,11.37
2022-10-08T15:51:19.270Z,10.07
2022-10-08T15:53:47.565Z,9.37
2022-10-08T15:56:15.795Z,10.30
2022-10-08T15:58:51.972Z,8.80
2022-10-08T16:01:23.734Z,9.30
2022-10-08T16:03:53.618Z,8.27
2022-10-08T16:06:23.705Z,9.93
2022-10-08T16:08:52.033Z,8.43
2022-10-08T16:11:22.195Z,8.03
2022-10-08T16:13:51.920Z,8.10
2022-10-08T16:16:21.895Z,8.30
2022-10-08T16:18:56.040Z,9.23
2022-10-08T16:21:24.339Z,8.57
2022-10-08T16:23:52.599Z,9.00
2022-10-08T16:26:21.640Z,10.33
2022-10-08T16:28:52.123Z,9.90
2022-10-08T16:31:22.209Z,11.13
2022-10-08T16:33:55.667Z,10.27
2022-10-08T16:36:24.519Z,10.63
2022-10-08T16:38:53.913Z,10.30
2022-10-08T16:41:23.870Z,11.33
2022-10-08T16:43:53.877Z,10.40
2022-10-08T16:46:25.635Z,10.53
2022-10-08T16:48:54.624Z,9.87
2022-10-08T16:51:24.064Z,10.83
2022-10-08T16:53:53.437Z,11.43
2022-10-08T16:56:21.877Z,10.83
2022-10-08T16:58:53.194Z,10.50
2022-10-08T17:01:23.228Z,10.10
2022-10-08T17:03:51.763Z,10.47
2022-10-08T17:06:21.162Z,8.93
2022-10-08T17:08:49.708Z,9.23
2022-10-08T17:11:18.663Z,9.57
2022-10-08T17:13:48.796Z,9.57
2022-10-08T17:16:18.208Z,9.50
2022-10-08T17:18:50.843Z,9.50
2022-10-08T17:21:19.111Z,9.10
2022-10-08T17:23:47.418Z,10.20
2022-10-08T17:26:17.603Z,9.23
2022-10-08T17:28:47.646Z,10.17
2022-10-08T17:31:17.803Z,9.17
2022-10-08T17:33:47.551Z,10.13
2022-10-08T17:36:18.148Z,8.50
2022-10-08T17:38:48.354Z,9.13
2022-10-08T17:41:18.916Z,8.73
2022-10-08T17:43:48.220Z,9.23
2022-10-08T17:46:18.283Z,8.87
2022-10-08T17:48:48.031Z,8.50
2022-10-08T17:51:17.951Z,8.43
2022-10-08T17:53:46.853Z,8.07
2022-10-08T17:56:15.384Z,8.27
2022-10-08T17:58:43.540Z,8.30
2022-10-08T18:01:13.557Z,8.50
2022-10-08T18:03:43.393Z,9.17
2022-10-08T18:06:14.472Z,9.03
2022-10-08T18:08:42.697Z,9.27
2022-10-08T18:11:12.836Z,8.63
2022-10-08T18:13:41.421Z,9.90
2022-10-08T18:16:12.339Z,9.43
2022-10-08T18:18:40.760Z,8.70
2022-10-08T18:21:09.255Z,10.67
2022-10-08T18:23:39.107Z,9.60
2022-10-08T18:26:12.372Z,10.07
2022-10-08T18:28:40.534Z,10.63
2022-10-08T18:31:10.354Z,10.90
2022-10-08T18:33:40.496Z,10.97
2022-10-08T18:36:11.298Z,10.47
2022-10-08T18:38:42.539Z,9.83
2022-10-08T18:41:14.823Z,9.57
2022-10-08T18:43:43.132Z,10.17
2022-10-08T18:46:11.368Z,9.33
2022-10-08T18:48:39.929Z,9.90
2022-10-08T18:51:09.547Z,9.47
2022-10-08T18:53:40.788Z,9.17
2022-10-08T18:56:11.759Z,8.73
2022-10-08T18:58:39.888Z,9.30
2022-10-08T19:01:16.165Z,8.70
2022-10-08T19:03:46.805Z,8.80
2022-10-08T19:06:15.027Z,10.13
2022-10-08T19:08:44.694Z,11.27
2022-10-08T19:11:15.517Z,12.60
2022-10-08T19:13:44.355Z,9.83
2022-10-08T19:16:15.209Z,8.83
2022-10-08T19:18:44.354Z,8.63
2022-10-08T19:21:14.399Z,8.70
2022-10-08T19:23:44.112Z,9.00
2022-10-08T19:26:12.671Z,9.13
2022-10-08T19:28:41.754Z,9.13
2022-10-08T19:31:14.324Z,8.87
2022-10-08T19:33:42.707Z,9.10
2022-10-08T19:36:11.344Z,8.53
2022-10-08T19:38:39.457Z,7.70
2022-10-08T19:41:13.088Z,8.30
2022-10-08T19:43:43.386Z,8.30
2022-10-08T19:46:11.944Z,8.30
2022-10-08T19:48:40.218Z,8.10
2022-10-08T19:51:10.452Z,7.80
2022-10-08T19:53:39.712Z,8.80
2022-10-08T19:56:10.126Z,8.97
2022-10-08T19:58:44.988Z,8.60
2022-10-08T20:01:18.674Z,8.47
2022-10-08T20:03:46.936Z,8.37
2022-10-08T20:06:21.723Z,9.23
2022-10-08T20:08:53.987Z,8.43
2022-10-08T20:11:22.551Z,8.63
2022-10-08T20:13:54.393Z,8.10
2022-10-08T20:16:24.289Z,8.60
2022-10-08T20:18:54.471Z,8.93
2022-10-08T20:21:24.085Z,9.30
2022-10-08T20:23:52.285Z,9.63
2022-10-08T20:26:21.984Z,9.93
2022-10-08T20:28:53.415Z,9.23
2022-10-08T20:31:23.629Z,9.23
2022-10-08T20:33:57.564Z,9.27
2022-10-08T20:36:26.026Z,8.33
2022-10-08T20:38:54.879Z,8.60
2022-10-08T20:41:29.584Z,8.27
2022-10-08T20:44:03.163Z,8.67
2022-10-08T20:46:32.564Z,8.97
2022-10-08T20:49:01.131Z,8.60
2022-10-08T20:51:30.107Z,8.67
2022-10-08T20:54:00.126Z,9.07
2022-10-08T20:56:29.325Z,8.53
2022-10-08T20:58:58.328Z,9.20
2022-10-08T21:01:32.086Z,8.83
2022-10-08T21:04:00.821Z,8.70
2022-10-08T21:06:31.391Z,8.00
2022-10-08T21:09:00.598Z,8.90
2022-10-08T21:11:30.705Z,8.77
2022-10-08T21:13:59.523Z,9.67
2022-10-08T21:16:31.672Z,9.80
2022-10-08T21:19:02.284Z,9.80
2022-10-08T21:21:32.063Z,9.53
2022-10-08T21:24:00.633Z,9.10
2022-10-08T21:26:30.516Z,9.07
2022-10-08T21:29:00.109Z,9.13
2022-10-08T21:31:31.680Z,8.97
2022-10-08T21:34:00.419Z,9.23
2022-10-08T21:36:30.666Z,9.00
2022-10-08T21:39:00.408Z,8.70
2022-10-08T21:41:31.017Z,9.60
2022-10-08T21:44:01.715Z,10.20
2022-10-08T21:46:33.965Z,9.57
2022-10-08T21:49:04.251Z,8.83
2022-10-08T21:51:33.344Z,9.47
2022-10-08T21:54:03.421Z,10.57
2022-10-08T21:56:34.236Z,10.13
2022-10-08T21:59:03.812Z,9.83
2022-10-08T22:01:35.940Z,10.03
2022-10-08T22:04:06.259Z,9.93
2022-10-08T22:06:37.495Z,9.50
2022-10-08T22:09:06.923Z,8.77
2022-10-08T22:11:35.363Z,8.60
2022-10-08T22:14:03.681Z,8.47
2022-10-08T22:16:33.449Z,7.80
2022-10-08T22:19:01.913Z,8.47
2022-10-08T22:21:30.105Z,8.20
2022-10-08T22:23:58.332Z,8.77
2022-10-08T22:26:29.818Z,8.27
2022-10-08T22:28:58.727Z,8.70
2022-10-08T22:31:27.854Z,8.93
2022-10-08T22:33:57.494Z,8.53
2022-10-08T22:36:28.251Z,9.20
2022-10-08T22:38:57.380Z,8.43
2022-10-08T22:41:26.900Z,7.93
2022-10-08T22:43:55.555Z,8.20
2022-10-08T22:46:26.221Z,7.97
2022-10-08T22:49:00.014Z,8.17
2022-10-08T22:51:29.062Z,7.40
2022-10-08T22:53:57.793Z,6.40
2022-10-08T22:56:27.891Z,7.23
2022-10-08T22:58:56.128Z,6.33
2022-10-08T23:01:25.778Z,6.30
2022-10-08T23:03:54.483Z,5.73
2022-10-08T23:06:25.117Z,5.80
2022-10-08T23:08:55.527Z,6.27
2022-10-08T23:11:24.146Z,7.00
2022-10-08T23:13:52.764Z,6.67
2022-10-08T23:16:21.129Z,6.10
2022-10-08T23:18:55.451Z,5.80
2022-10-08T23:21:25.594Z,5.63
2022-10-08T23:23:54.823Z,5.47
2022-10-08T23:26:23.986Z,5.70
2022-10-08T23:28:53.387Z,5.53
2022-10-08T23:31:23.879Z,5.33
2022-10-08T23:33:53.877Z,5.87
2022-10-08T23:36:26.529Z,5.87
2022-10-08T23:38:56.502Z,6.00
2022-10-08T23:41:25.550Z,6.20
2022-10-08T23:43:54.645Z,5.70
2022-10-08T23:46:24.360Z,5.30
2022-10-08T23:48:53.420Z,5.90
2022-10-08T23:51:23.390Z,5.77
2022-10-08T23:53:53.633Z,5.70
2022-10-08T23:56:22.681Z,5.80
2022-10-08T23:58:51.046Z,6.30
